TLSO2: Arkansas River, Tulsa, OK

Data processed at Sat Dec 09 2017 23:47


All information presented herein is the property of the government of the United States of America and may be revised or deleted at any time without prior notice.
Dissemination of this information without the expressed written consent of the Public Affairs Office, Tulsa District U.S. Army Corps of Engineers is strictly prohibited.
These data are gathered electronically and, as presented, have not undergone any form of quality control. These data are not guaranteed to be valid or correct.
Go to home page.
Go to station list.

Upstream stations:

Downstream station:
Previous Day
Next Day
Current Day
    
SHEF ID:       TLSO2     Arkansas River at Tulsa, OK
STATION TYPE:  

               PRECIP     STAGE  STAGE(2)  RIV-FLOW  WTR-TEMP   DIS-OXY  BAT-LOAD
                   in        ft        ft       cfs         F      mg/l      volt
              Ccp-Rev   Ccp-Rev   Ccp-Rev   Ccp-Rev   Ccp-Rev   Ccp-Rev   Ccp-Rev
(US/Central)
12/07 00:00      0.00      2.83      ----      3842     50.23     10.28     12.57
12/07 01:00      0.00      3.20      ----      5392     50.29     10.35     12.57
12/07 02:00      0.00      3.20      ----      5392     50.49      9.97     12.57
12/07 03:00      0.00      3.00      ----      4551     50.18      9.84     12.49
12/07 04:00      0.00      2.72      ----      3423     49.48      9.99     12.49
12/07 05:00      0.00      2.43      ----      2466     48.78     10.13     12.41
12/07 06:00      0.00      2.17      ----      1774     48.22     10.19     12.41
12/07 07:00      0.00      1.95      ----      1299     47.61     10.28     12.41
12/07 08:00      0.00      1.79      ----      1012     46.92     10.40     12.41
12/07 09:00      0.00      1.64      ----       784     46.42     10.58     13.44
12/07 10:00      0.00      1.54      ----       652     46.13     10.78     13.92
12/07 11:00      0.00      1.43      ----       525     46.20     10.88      ----
12/07 12:00      0.00      1.53      ----       640     46.58     11.03     13.29
12/07 13:00      ----      ----      ----      ----      ----      ----     13.84
12/07 14:00      ----      ----      ----      ----      ----      ----      0.00
12/07 15:00      ----      4.28      ----      9969     50.49      9.98     12.89
12/07 16:00      0.00      4.50      ----     10915     51.26     10.01     13.13
12/07 17:00      0.00      4.39      ----     10441     51.21     10.02     12.89
12/07 18:00      0.00      4.07      ----      9075     51.60      9.93     12.65
12/07 19:00      0.00      3.68      ----      7425     51.30      9.95     12.65
12/07 20:00      0.00      3.27      ----      5688     50.92      9.99     12.65
12/07 21:00      0.00      2.91      ----      4166     50.32     10.10     12.57
12/07 22:00      0.00      2.67      ----      3244     49.86     10.13     12.57
12/07 23:00      0.00      2.78      ----      3648     49.35     10.20     12.57